New Hempstead, New York
Current Conditions -  °F | °C
As of 3:56 AM on Sunday 26 Oct 2014 (Local Time) from KHPN Reporting Station
Broken Clouds Broken Clouds  
Wind Chill: 53°   Ceiling: 6500
Heat Index: 53°   Visibility: 9mi
Dew Point: 47°   Wind: 22mph
Humidity: 80%   Direction: 320°NW
Pressure: 29.56"   Gusts: 29mph
Location:  41.1194°N, 74.0479°W
Report Text: KHPN 260756Z 32019G25KT 9SM FEW034 SCT050 BKN065 12/08 A2956 RMK AO2 SLP010 T01170083
Loading
Personal Weather Stations






























Interactive Weather Map
Tropical Storm Tracking
New forecast layout! Learn more

10-Day Weather Forecast

Advertisements
Track Severe Weather on mobile